Time;durP1;ratioP1;P1;durP2;ratioP2;P2;SDS_P1;SDS_P2;PMS_P1;PMS_P2;Temp;Humidity;BMP_temperature;BMP_pressure;BME280_temperature;BME280_humidity;BME280_pressure;Samples;Min_cycle;Max_cycle;Signal;HPM_P1;HPM_P2
2020/12/19 00:02:22;;;;;;;2.00;1.80;;;9.50;99.90;;;;;;5016615;28;20389;-75
2020/12/19 00:04:48;;;;;;;1.50;1.40;;;8.00;99.90;;;;;;5015406;28;20385;-76
2020/12/19 00:07:13;;;;;;;1.77;1.30;;;8.10;99.90;;;;;;5013860;28;20381;-75
2020/12/19 00:09:39;;;;;;;1.27;1.00;;;8.20;99.90;;;;;;5013047;28;20754;-77
2020/12/19 00:12:06;;;;;;;2.40;1.17;;;8.50;99.90;;;;;;5013008;28;20384;-76
2020/12/19 00:14:32;;;;;;;1.70;1.30;;;8.40;99.90;;;;;;5013093;28;20925;-76
2020/12/19 00:16:58;;;;;;;2.15;1.35;;;8.60;99.90;;;;;;5011410;28;20396;-76
2020/12/19 00:19:23;;;;;;;1.60;1.30;;;9.00;99.90;;;;;;5013315;28;20792;-77
2020/12/19 00:21:49;;;;;;;1.30;1.00;;;8.70;99.90;;;;;;5012367;28;20381;-76
2020/12/19 00:24:15;;;;;;;1.43;1.20;;;8.60;99.90;;;;;;5012135;28;20392;-75
2020/12/19 00:26:42;;;;;;;1.70;1.30;;;9.70;99.90;;;;;;5012310;28;20809;-75
2020/12/19 00:29:09;;;;;;;1.98;1.80;;;8.50;99.90;;;;;;5013258;28;20413;-77
2020/12/19 00:31:36;;;;;;;2.67;1.85;;;8.90;99.90;;;;;;5009508;28;20936;-76
2020/12/19 00:34:03;;;;;;;2.55;2.10;;;8.50;99.90;;;;;;5010771;28;20393;-76
2020/12/19 00:36:28;;;;;;;1.90;1.70;;;9.00;99.90;;;;;;5013128;28;20472;-75
2020/12/19 00:38:54;;;;;;;3.05;2.40;;;10.70;99.90;;;;;;5009668;28;20859;-76
2020/12/19 00:41:22;;;;;;;2.80;2.33;;;9.40;99.90;;;;;;5012786;28;20894;-76
2020/12/19 00:43:48;;;;;;;3.85;2.70;;;9.40;99.90;;;;;;5012710;28;20377;-75
2020/12/19 00:46:15;;;;;;;3.15;2.67;;;9.60;99.90;;;;;;5013368;28;20389;-76
2020/12/19 00:48:42;;;;;;;4.13;2.80;;;9.10;99.90;;;;;;5012604;28;20428;-77
2020/12/19 00:51:13;;;;;;;3.40;2.40;;;10.30;99.90;;;;;;5013351;28;20734;-76
2020/12/19 00:53:44;;;;;;;2.35;1.67;;;8.30;99.90;;;;;;5012669;28;20816;-76
2020/12/19 00:56:30;;;;;;;2.50;1.48;;;8.30;99.90;;;;;;5012825;28;20396;-75
2020/12/19 00:58:56;;;;;;;1.25;0.98;;;8.50;99.90;;;;;;5009573;28;20405;-75
2020/12/19 01:01:24;;;;;;;0.70;0.70;;;9.10;99.90;;;;;;5012348;28;20720;-75
2020/12/19 01:03:53;;;;;;;1.60;1.00;;;8.90;99.90;;;;;;5011512;28;20741;-75
2020/12/19 01:06:21;;;;;;;0.90;0.90;;;9.00;99.90;;;;;;5012631;28;20842;-75
2020/12/19 01:08:52;;;;;;;1.02;0.80;;;9.00;99.90;;;;;;5011633;28;20499;-76
2020/12/19 01:11:19;;;;;;;1.03;0.80;;;9.20;99.90;;;;;;5012504;28;20737;-75
2020/12/19 01:13:45;;;;;;;1.45;0.88;;;9.20;99.90;;;;;;5012005;28;20377;-76
2020/12/19 01:16:16;;;;;;;1.00;0.80;;;9.00;99.90;;;;;;5011812;28;20385;-75
2020/12/19 01:18:45;;;;;;;1.10;0.80;;;9.30;99.90;;;;;;5012286;28;20393;-75
2020/12/19 01:21:13;;;;;;;1.00;0.80;;;9.20;99.90;;;;;;5011982;28;20376;-75
2020/12/19 01:23:39;;;;;;;1.00;0.90;;;9.20;99.90;;;;;;5012222;28;20389;-75
2020/12/19 01:26:05;;;;;;;0.90;0.70;;;9.10;99.90;;;;;;5011410;28;20988;-75
2020/12/19 01:28:30;;;;;;;0.93;0.60;;;9.20;99.90;;;;;;5011540;28;20420;-75
2020/12/19 01:30:56;;;;;;;1.23;0.85;;;11.40;99.90;;;;;;5011114;28;20447;-75
2020/12/19 01:33:22;;;;;;;0.60;0.50;;;9.60;99.90;;;;;;5011833;28;20389;-75
2020/12/19 01:35:47;;;;;;;0.90;0.60;;;9.80;99.90;;;;;;5011781;28;20444;-76
2020/12/19 01:38:13;;;;;;;0.70;0.60;;;9.30;99.90;;;;;;5011737;28;20397;-75
2020/12/19 01:40:38;;;;;;;1.60;0.70;;;9.20;99.90;;;;;;5012020;28;20412;-75
2020/12/19 01:43:04;;;;;;;1.00;0.70;;;10.60;99.90;;;;;;5010983;28;20387;-75
2020/12/19 01:45:30;;;;;;;2.50;0.90;;;9.10;99.90;;;;;;5011981;28;20376;-75
2020/12/19 01:47:57;;;;;;;2.93;0.70;;;9.80;99.90;;;;;;5010520;28;20412;-75
2020/12/19 01:50:23;;;;;;;1.13;0.70;;;9.20;99.90;;;;;;5010548;28;20421;-75
2020/12/19 01:52:49;;;;;;;1.83;1.35;;;9.20;99.90;;;;;;5011111;28;20885;-76
2020/12/19 01:55:15;;;;;;;1.58;0.93;;;10.40;99.90;;;;;;5011657;28;20380;-75
2020/12/19 01:57:41;;;;;;;1.00;0.80;;;9.20;99.90;;;;;;5011200;28;20869;-75
2020/12/19 02:00:07;;;;;;;0.80;0.65;;;9.50;99.90;;;;;;5010666;28;21026;-75
2020/12/19 02:02:33;;;;;;;4.50;0.70;;;10.60;99.90;;;;;;5011520;28;20391;-75
2020/12/19 02:04:59;;;;;;;1.00;0.60;;;10.00;99.90;;;;;;5010563;28;20385;-76
2020/12/19 02:07:25;;;;;;;1.03;0.67;;;10.80;99.90;;;;;;5011134;28;20384;-75
2020/12/19 02:09:52;;;;;;;1.25;0.95;;;9.90;99.90;;;;;;5009335;28;20471;-76
2020/12/19 02:12:18;;;;;;;0.80;0.70;;;9.40;99.90;;;;;;5011585;28;20783;-75
2020/12/19 02:14:44;;;;;;;1.42;0.88;;;9.30;99.90;;;;;;5011149;28;20380;-75
2020/12/19 02:17:12;;;;;;;0.88;0.70;;;9.30;99.90;;;;;;5010819;28;20385;-75
2020/12/19 02:19:38;;;;;;;1.25;0.77;;;11.30;99.90;;;;;;5011246;28;20472;-75
2020/12/19 02:22:05;;;;;;;1.23;1.00;;;9.90;99.90;;;;;;5010193;28;20790;-76
2020/12/19 02:24:32;;;;;;;0.70;0.50;;;9.70;99.90;;;;;;5011134;28;20464;-76
2020/12/19 02:26:59;;;;;;;0.93;0.70;;;9.50;99.90;;;;;;5010266;28;20439;-76
2020/12/19 02:29:26;;;;;;;1.67;0.70;;;9.30;99.90;;;;;;5010069;28;20420;-76
2020/12/19 02:31:53;;;;;;;0.60;0.60;;;9.30;99.90;;;;;;5010357;28;20413;-77
2020/12/19 02:34:19;;;;;;;0.70;0.60;;;9.80;99.90;;;;;;5010620;28;20385;-76
2020/12/19 02:36:45;;;;;;;2.40;0.63;;;9.40;99.90;;;;;;5011228;28;20381;-76
2020/12/19 02:39:11;;;;;;;2.60;0.60;;;10.00;99.90;;;;;;5009663;28;20475;-76
2020/12/19 02:41:38;;;;;;;0.80;0.80;;;10.10;99.90;;;;;;5011005;28;20427;-75
2020/12/19 02:44:05;;;;;;;0.60;0.60;;;9.70;99.90;;;;;;5010113;28;20389;-76
2020/12/19 02:46:31;;;;;;;0.80;0.60;;;9.70;99.90;;;;;;5010420;28;20893;-76
2020/12/19 02:48:57;;;;;;;1.17;0.87;;;9.30;99.90;;;;;;5010001;28;20504;-76
2020/12/19 02:51:22;;;;;;;1.07;0.83;;;9.00;99.90;;;;;;5009905;28;20420;-76
2020/12/19 02:53:48;;;;;;;0.80;0.70;;;9.60;99.90;;;;;;5010792;28;20377;-76
2020/12/19 02:56:14;;;;;;;1.90;0.70;;;9.70;99.90;;;;;;5010236;28;20471;-76
2020/12/19 02:58:39;;;;;;;1.93;0.80;;;9.00;99.90;;;;;;5010492;28;20393;-76
2020/12/19 03:01:05;;;;;;;0.53;0.53;;;9.00;99.90;;;;;;5009636;28;20483;-76
2020/12/19 03:03:31;;;;;;;0.70;0.70;;;9.50;99.90;;;;;;5011065;28;20389;-76
2020/12/19 03:05:56;;;;;;;0.80;0.80;;;10.20;99.90;;;;;;5008735;28;20389;-76
2020/12/19 03:08:22;;;;;;;0.77;0.50;;;8.90;99.90;;;;;;5010686;28;20421;-76
2020/12/19 03:10:48;;;;;;;1.40;0.60;;;9.40;99.90;;;;;;5010717;28;20485;-76
2020/12/19 03:13:13;;;;;;;0.70;0.60;;;8.80;99.90;;;;;;5009912;28;20792;-76
2020/12/19 03:15:39;;;;;;;0.70;0.60;;;8.80;99.90;;;;;;5010669;28;20892;-76
2020/12/19 03:18:05;;;;;;;0.70;0.67;;;10.50;99.90;;;;;;5009913;28;20389;-76
2020/12/19 03:20:30;;;;;;;0.90;0.70;;;8.60;99.90;;;;;;5010615;28;20389;-76
2020/12/19 03:22:56;;;;;;;0.87;0.70;;;8.70;99.90;;;;;;5009630;28;20755;-76
2020/12/19 03:25:22;;;;;;;0.87;0.87;;;8.80;99.90;;;;;;5010264;28;20888;-76
2020/12/19 03:27:47;;;;;;;1.20;0.70;;;9.50;99.90;;;;;;5010491;28;20499;-75
2020/12/19 03:30:13;;;;;;;0.80;0.70;;;8.90;99.90;;;;;;5008329;28;20532;-76
2020/12/19 03:32:39;;;;;;;0.87;0.80;;;9.40;99.90;;;;;;5010413;28;20396;-76
2020/12/19 03:35:04;;;;;;;1.30;0.70;;;8.40;99.90;;;;;;5009368;28;20401;-76
2020/12/19 03:37:33;;;;;;;0.80;0.63;;;8.00;99.90;;;;;;5010285;28;20428;-77
2020/12/19 03:39:59;;;;;;;0.70;0.60;;;10.20;99.90;;;;;;5010689;28;20381;-74
2020/12/19 03:42:25;;;;;;;1.35;0.80;;;8.10;99.90;;;;;;5013049;28;20381;-75
2020/12/19 03:44:51;;;;;;;0.90;0.70;;;7.80;99.90;;;;;;5014066;28;20906;-75
2020/12/19 03:47:16;;;;;;;1.90;0.60;;;8.00;99.90;;;;;;5013313;28;20373;-75
2020/12/19 03:49:42;;;;;;;1.10;0.80;;;8.30;99.90;;;;;;5013818;28;20413;-75
2020/12/19 03:52:08;;;;;;;0.90;0.60;;;8.10;99.90;;;;;;5013206;28;20391;-74
2020/12/19 03:54:33;;;;;;;1.00;0.80;;;8.20;99.90;;;;;;5014010;28;20444;-74
2020/12/19 03:56:59;;;;;;;0.90;0.80;;;8.40;99.90;;;;;;5013172;28;20395;-75
2020/12/19 03:59:25;;;;;;;0.80;0.60;;;8.90;99.90;;;;;;5013492;28;20392;-75
2020/12/19 04:01:50;;;;;;;0.70;0.60;;;8.40;99.90;;;;;;5013618;28;20393;-74
2020/12/19 04:04:16;;;;;;;1.90;0.70;;;7.60;99.90;;;;;;5012613;28;20382;-75
2020/12/19 04:06:41;;;;;;;0.60;0.50;;;8.10;99.90;;;;;;5013784;28;20381;-74
2020/12/19 04:09:07;;;;;;;1.43;0.70;;;7.60;99.90;;;;;;5012857;28;20431;-74
2020/12/19 04:11:33;;;;;;;1.07;0.70;;;7.70;99.90;;;;;;5013357;28;20376;-75
2020/12/19 04:13:59;;;;;;;1.10;0.60;;;7.70;99.90;;;;;;5011597;28;20392;-76
2020/12/19 04:16:24;;;;;;;1.90;0.70;;;8.80;99.90;;;;;;5013436;28;20389;-75
2020/12/19 04:18:50;;;;;;;2.50;0.70;;;7.80;99.90;;;;;;5013208;28;20393;-75
2020/12/19 04:21:15;;;;;;;1.10;0.80;;;7.30;99.90;;;;;;5012170;28;21082;-75
2020/12/19 04:23:41;;;;;;;0.70;0.50;;;7.50;99.90;;;;;;5013115;28;20384;-75
2020/12/19 04:26:07;;;;;;;1.60;0.70;;;8.30;99.90;;;;;;5012491;28;20516;-76
2020/12/19 04:28:32;;;;;;;0.60;0.60;;;7.30;99.90;;;;;;5013299;28;20897;-75
2020/12/19 04:30:58;;;;;;;0.70;0.70;;;8.70;99.90;;;;;;5012163;28;20519;-77
2020/12/19 04:33:24;;;;;;;1.13;0.80;;;7.20;99.90;;;;;;5012682;28;20864;-76
2020/12/19 04:35:51;;;;;;;1.20;1.00;;;7.40;99.90;;;;;;5013209;28;20880;-76
2020/12/19 04:38:17;;;;;;;0.80;0.80;;;8.00;99.90;;;;;;5012414;28;20388;-75
2020/12/19 04:40:43;;;;;;;0.97;0.70;;;7.10;99.90;;;;;;5013017;28;20879;-75
2020/12/19 04:43:16;;;;;;;1.15;0.90;;;7.00;99.90;;;;;;5012274;28;20722;-75
2020/12/19 04:45:43;;;;;;;1.30;0.90;;;7.20;99.90;;;;;;5013005;28;20525;-75
2020/12/19 04:48:09;;;;;;;0.90;0.80;;;7.00;99.90;;;;;;5010935;28;20443;-75
2020/12/19 04:50:39;;;;;;;0.70;0.60;;;7.00;99.90;;;;;;5012611;28;20734;-75
2020/12/19 04:53:21;;;;;;;1.15;0.85;;;7.00;99.90;;;;;;5011587;28;20377;-75
2020/12/19 04:55:47;;;;;;;0.70;0.50;;;6.90;99.90;;;;;;5012985;28;20710;-75
2020/12/19 04:58:20;;;;;;;0.60;0.60;;;7.50;99.90;;;;;;5012089;28;20844;-75
2020/12/19 05:00:47;;;;;;;0.95;0.70;;;8.60;99.90;;;;;;5012963;28;20393;-75
2020/12/19 05:03:13;;;;;;;0.70;0.60;;;6.90;99.90;;;;;;5011910;28;20762;-75
2020/12/19 05:05:43;;;;;;;0.80;0.70;;;7.10;99.90;;;;;;5012739;28;20471;-75
2020/12/19 05:08:10;;;;;;;0.77;0.63;;;6.90;99.90;;;;;;5011894;28;20413;-75
2020/12/19 05:10:36;;;;;;;0.88;0.70;;;6.80;99.90;;;;;;5012818;28;20393;-75
2020/12/19 05:13:02;;;;;;;0.80;0.70;;;7.90;99.90;;;;;;5012083;28;20423;-76
2020/12/19 05:15:28;;;;;;;1.02;0.90;;;8.30;99.90;;;;;;5012517;28;20742;-75
2020/12/19 05:17:56;;;;;;;1.60;0.88;;;6.70;99.90;;;;;;5012683;28;20388;-74
2020/12/19 05:20:25;;;;;;;1.20;0.80;;;7.50;99.90;;;;;;5011825;28;20385;-75
2020/12/19 05:22:52;;;;;;;1.70;0.73;;;7.10;99.90;;;;;;5011582;28;20738;-75
2020/12/19 05:25:19;;;;;;;1.17;0.60;;;6.50;99.90;;;;;;5011972;28;21324;-75
2020/12/19 05:27:46;;;;;;;0.88;0.57;;;6.90;99.90;;;;;;5012515;28;20381;-75
2020/12/19 05:30:12;;;;;;;0.80;0.70;;;6.70;99.90;;;;;;5010163;28;20483;-75
2020/12/19 05:32:52;;;;;;;0.73;0.73;;;6.60;99.90;;;;;;4992798;28;20394;-75
2020/12/19 05:35:21;;;;;;;1.10;0.70;;;6.90;99.90;;;;;;4996438;28;20464;-75
2020/12/19 05:38:13;;;;;;;1.10;1.00;;;6.40;99.90;;;;;;5012745;28;20393;-75
2020/12/19 05:40:39;;;;;;;0.68;0.60;;;6.40;99.90;;;;;;5010321;28;20397;-75
2020/12/19 05:43:05;;;;;;;0.60;0.60;;;6.40;99.90;;;;;;5011531;28;20459;-74
2020/12/19 05:45:31;;;;;;;0.70;0.50;;;6.70;99.90;;;;;;5012312;28;20785;-75
2020/12/19 05:47:57;;;;;;;0.90;0.80;;;6.30;99.90;;;;;;5012045;28;20413;-75
2020/12/19 05:50:23;;;;;;;1.40;0.80;;;6.20;99.90;;;;;;5011439;28;20377;-75
2020/12/19 05:52:49;;;;;;;1.48;0.70;;;6.50;99.90;;;;;;5012083;28;20392;-75
2020/12/19 05:55:17;;;;;;;0.77;0.60;;;6.30;99.90;;;;;;5011333;28;20389;-75
2020/12/19 05:57:44;;;;;;;2.00;1.00;;;7.20;99.90;;;;;;5011985;28;20469;-75
2020/12/19 06:00:12;;;;;;;1.30;1.20;;;7.90;99.90;;;;;;5011024;28;20590;-75
2020/12/19 06:02:38;;;;;;;2.30;1.60;;;8.10;99.90;;;;;;5012075;28;20393;-76
2020/12/19 06:05:06;;;;;;;2.40;2.20;;;6.50;99.90;;;;;;5010149;28;20491;-77
2020/12/19 06:07:48;;;;;;;5.93;4.60;;;6.40;99.90;;;;;;5012501;28;20393;-75
2020/12/19 06:10:18;;;;;;;6.03;5.20;;;7.10;99.90;;;;;;5011226;28;20503;-76
2020/12/19 06:12:45;;;;;;;10.75;5.30;;;6.10;99.90;;;;;;5011926;28;20467;-76
2020/12/19 06:15:30;;;;;;;7.88;5.25;;;8.60;99.90;;;;;;5010069;28;20392;-76
2020/12/19 06:18:06;;;;;;;5.00;4.50;;;6.20;99.90;;;;;;5011666;28;20835;-76
2020/12/19 06:20:33;;;;;;;6.72;5.22;;;7.80;99.90;;;;;;5011712;28;20389;-76
2020/12/19 06:22:59;;;;;;;5.95;4.85;;;5.90;99.90;;;;;;5011332;28;20385;-75
2020/12/19 06:26:01;;;;;;;5.93;4.90;;;5.80;99.90;;;;;;5009665;28;21035;-75
2020/12/19 06:28:44;;;;;;;7.27;5.20;;;5.50;99.90;;;;;;4969347;28;20511;-76
2020/12/19 06:31:16;;;;;;;6.93;5.05;;;7.10;99.90;;;;;;5007240;28;20504;-76
2020/12/19 06:33:46;;;;;;;7.35;5.15;;;5.80;99.90;;;;;;5011555;28;20778;-76
2020/12/19 06:36:23;;;;;;;7.10;5.40;;;6.40;99.90;;;;;;5010730;28;20438;-76
2020/12/19 06:38:50;;;;;;;6.00;4.90;;;7.30;99.90;;;;;;5011425;28;20388;-75
2020/12/19 06:41:39;;;;;;;4.72;3.78;;;5.50;99.90;;;;;;5010101;28;20798;-75
2020/12/19 06:44:16;;;;;;;4.50;3.70;;;5.20;99.90;;;;;;5010664;28;20393;-77
2020/12/19 06:46:42;;;;;;;5.40;4.15;;;5.30;99.90;;;;;;5011058;28;20420;-76
2020/12/19 06:49:26;;;;;;;6.03;3.10;;;7.20;99.90;;;;;;5009935;28;20421;-78
2020/12/19 06:52:08;;;;;;;4.78;3.05;;;4.90;99.90;;;;;;5009455;28;20397;-76
2020/12/19 06:54:40;;;;;;;4.43;3.08;;;5.20;99.90;;;;;;5009260;28;20385;-76
2020/12/19 06:57:23;;;;;;;4.10;2.88;;;4.90;99.90;;;;;;5010814;28;20392;-77
2020/12/19 06:59:49;;;;;;;2.40;2.20;;;5.20;99.90;;;;;;5011231;28;20917;-75
2020/12/19 07:02:16;;;;;;;3.42;2.30;;;5.20;99.90;;;;;;5010064;28;20458;-76
2020/12/19 07:04:42;;;;;;;2.65;2.15;;;5.30;99.90;;;;;;5011450;28;20450;-76
2020/12/19 07:07:11;;;;;;;3.75;2.35;;;5.10;99.90;;;;;;5010352;28;20721;-77
2020/12/19 07:09:38;;;;;;;2.40;2.20;;;5.60;99.90;;;;;;5011245;28;20804;-76
2020/12/19 07:12:04;;;;;;;2.80;2.20;;;4.90;99.90;;;;;;5010568;28;20393;-76
2020/12/19 07:14:41;;;;;;;3.58;2.30;;;6.40;99.90;;;;;;5010545;28;20408;-76
2020/12/19 07:17:19;;;;;;;3.70;2.40;;;5.00;99.90;;;;;;5014776;28;20473;-77
2020/12/19 07:20:00;;;;;;;3.78;2.55;;;5.40;99.90;;;;;;5015080;28;20471;-76
2020/12/19 07:22:29;;;;;;;2.72;2.35;;;6.20;99.90;;;;;;5014187;28;20388;-76
2020/12/19 07:24:55;;;;;;;2.70;2.17;;;4.80;99.90;;;;;;5014795;28;20385;-76
2020/12/19 07:27:22;;;;;;;3.67;2.40;;;6.30;99.90;;;;;;5013909;28;20380;-76
2020/12/19 07:29:48;;;;;;;4.10;3.00;;;6.10;99.90;;;;;;5014701;28;20515;-76
2020/12/19 07:32:15;;;;;;;3.78;2.90;;;4.70;99.90;;;;;;5009033;28;20718;-77
2020/12/19 07:34:40;;;;;;;3.20;2.72;;;5.70;99.90;;;;;;5013217;28;20408;-76
2020/12/19 07:37:07;;;;;;;3.60;2.70;;;5.90;99.90;;;;;;5012730;28;20389;-76
2020/12/19 07:39:33;;;;;;;3.63;2.67;;;7.10;99.90;;;;;;5013731;28;20471;-77
2020/12/19 07:42:08;;;;;;;4.47;3.07;;;5.30;99.90;;;;;;5014128;28;20968;-76
2020/12/19 07:44:35;;;;;;;3.30;2.90;;;4.70;99.90;;;;;;5011665;28;20383;-77
2020/12/19 07:47:06;;;;;;;4.35;2.90;;;4.60;99.90;;;;;;5013034;28;20384;-76
2020/12/19 07:49:38;;;;;;;3.50;2.40;;;4.80;99.90;;;;;;5013468;28;20420;-77
2020/12/19 07:52:23;;;;;;;5.05;2.53;;;4.90;99.90;;;;;;5014268;28;20408;-76
2020/12/19 07:55:05;;;;;;;3.70;2.60;;;4.90;99.90;;;;;;5014248;28;20392;-74
2020/12/19 07:57:32;;;;;;;4.45;2.50;;;4.70;99.90;;;;;;5013425;28;20372;-77
2020/12/19 08:00:00;;;;;;;2.47;2.20;;;6.40;99.90;;;;;;5014226;28;20396;-76
2020/12/19 08:02:26;;;;;;;2.40;2.20;;;4.90;99.90;;;;;;5013256;28;20403;-77
2020/12/19 08:04:59;;;;;;;3.80;2.80;;;7.30;99.90;;;;;;5014095;28;20785;-76
2020/12/19 08:07:26;;;;;;;3.80;2.28;;;4.90;99.90;;;;;;5012970;28;20392;-76
2020/12/19 08:10:07;;;;;;;2.63;2.00;;;4.90;99.90;;;;;;5014057;28;20413;-76
2020/12/19 08:12:33;;;;;;;3.15;2.50;;;4.70;99.90;;;;;;5011875;28;20398;-77
2020/12/19 08:15:02;;;;;;;3.10;2.20;;;4.60;99.90;;;;;;5013986;28;20865;-75
2020/12/19 08:17:28;;;;;;;2.70;2.40;;;4.90;99.90;;;;;;5013104;28;20388;-75
2020/12/19 08:19:57;;;;;;;2.88;2.45;;;7.30;99.90;;;;;;5014162;28;20730;-75
2020/12/19 08:22:23;;;;;;;2.40;2.20;;;6.00;99.90;;;;;;5013333;28;20733;-77
2020/12/19 08:24:50;;;;;;;2.67;2.35;;;6.20;99.90;;;;;;5013960;28;20377;-75
2020/12/19 08:27:46;;;;;;;4.13;2.10;;;5.30;99.90;;;;;;5012530;28;20377;-75
2020/12/19 08:30:21;;;;;;;3.58;2.40;;;5.50;99.90;;;;;;5011903;28;20455;-77
2020/12/19 08:32:56;;;;;;;2.87;2.57;;;5.30;99.90;;;;;;5012492;28;20801;-75
2020/12/19 08:35:40;;;;;;;3.00;2.70;;;5.40;99.90;;;;;;5012727;28;20488;-76
2020/12/19 08:38:11;;;;;;;3.70;2.50;;;5.40;99.90;;;;;;5013489;28;20404;-75
2020/12/19 08:40:44;;;;;;;3.30;3.00;;;5.60;99.90;;;;;;5012869;28;20464;-75
2020/12/19 08:43:12;;;;;;;3.08;2.78;;;5.90;99.90;;;;;;5013344;28;20397;-76
2020/12/19 08:45:42;;;;;;;4.30;3.08;;;6.00;99.90;;;;;;5013449;28;20425;-78
2020/12/19 08:48:18;;;;;;;2.90;2.60;;;6.00;99.90;;;;;;5007720;28;20452;-77
2020/12/19 08:50:45;;;;;;;4.00;3.10;;;6.20;99.90;;;;;;4998864;28;20465;-76
2020/12/19 08:53:24;;;;;;;2.80;2.50;;;6.10;99.90;;;;;;5000226;28;20419;-79
2020/12/19 08:55:51;;;;;;;4.88;2.80;;;6.90;99.90;;;;;;5012218;28;20396;-77
2020/12/19 08:58:27;;;;;;;2.15;1.90;;;6.50;99.90;;;;;;5004819;28;20410;-77
2020/12/19 09:00:54;;;;;;;2.80;2.30;;;6.70;99.90;;;;;;5008670;28;20432;-76
2020/12/19 09:03:31;;;;;;;2.70;2.50;;;6.70;99.90;;;;;;5009990;28;20405;-74
2020/12/19 09:06:07;;;;;;;3.20;2.33;;;7.00;99.90;;;;;;5002408;28;20411;-76
2020/12/19 09:08:47;;;;;;;2.70;2.28;;;7.90;99.90;;;;;;5010228;28;20425;-76
2020/12/19 09:11:31;;;;;;;2.80;2.20;;;6.90;99.90;;;;;;5012065;28;20439;-75
2020/12/19 09:14:10;;;;;;;2.92;2.63;;;6.90;99.90;;;;;;5009858;28;20892;-75
2020/12/19 09:16:49;;;;;;;3.17;2.88;;;6.90;99.90;;;;;;5006596;28;20385;-75
2020/12/19 09:19:15;;;;;;;2.30;2.10;;;7.10;99.90;;;;;;5012062;28;20411;-77
2020/12/19 09:21:52;;;;;;;3.50;2.40;;;7.10;99.90;;;;;;5012708;28;20389;-76
2020/12/19 09:24:17;;;;;;;3.50;2.75;;;7.00;99.90;;;;;;5009312;28;20435;-76
2020/12/19 09:26:47;;;;;;;3.83;2.40;;;7.10;99.90;;;;;;5012832;28;20861;-76
2020/12/19 09:29:12;;;;;;;4.55;2.60;;;7.70;99.90;;;;;;5011165;28;20955;-74
2020/12/19 09:31:38;;;;;;;2.90;2.45;;;8.20;99.90;;;;;;5012384;28;20455;-75
2020/12/19 09:34:07;;;;;;;2.70;2.40;;;9.40;99.90;;;;;;5012492;28;20831;-75
2020/12/19 09:36:33;;;;;;;3.70;1.98;;;7.60;99.90;;;;;;5012793;28;20404;-76
2020/12/19 09:38:59;;;;;;;2.20;2.00;;;;;;;;;;5013143;28;20467;-75
2020/12/19 09:41:24;;;;;;;3.95;2.10;;;7.70;99.90;;;;;;5012049;28;20742;-77
2020/12/19 09:43:50;;;;;;;1.70;1.57;;;9.40;99.90;;;;;;5012606;28;20442;-77
2020/12/19 09:46:16;;;;;;;2.80;2.33;;;9.80;99.90;;;;;;5012078;28;20412;-77
2020/12/19 09:48:42;;;;;;;3.70;3.00;;;9.20;99.90;;;;;;5012038;28;20474;-77
2020/12/19 09:51:08;;;;;;;6.53;5.82;;;9.20;99.90;;;;;;5012266;28;20380;-77
2020/12/19 09:53:36;;;;;;;8.02;6.65;;;9.30;99.90;;;;;;5011942;28;20919;-77
2020/12/19 09:56:03;;;;;;;8.07;6.80;;;9.70;99.90;;;;;;5012340;28;20384;-77
2020/12/19 09:58:28;;;;;;;8.00;7.00;;;8.10;99.90;;;;;;5010456;28;20758;-77
2020/12/19 10:00:54;;;;;;;9.90;7.80;;;7.90;99.90;;;;;;5012446;28;20504;-77
2020/12/19 10:03:20;;;;;;;8.55;7.57;;;8.20;99.90;;;;;;5011401;28;20384;-75
2020/12/19 10:05:46;;;;;;;9.70;6.90;;;9.40;99.90;;;;;;5012267;28;20842;-76
2020/12/19 10:08:12;;;;;;;9.02;7.00;;;7.70;99.90;;;;;;5012322;28;20463;-76
2020/12/19 10:10:39;;;;;;;10.43;7.68;;;8.00;99.90;;;;;;5010214;28;20393;-76
2020/12/19 10:13:04;;;;;;;9.55;8.10;;;7.70;99.90;;;;;;5012317;28;20419;-77
2020/12/19 10:15:30;;;;;;;10.38;7.60;;;8.30;99.90;;;;;;5011069;28;20424;-75
2020/12/19 10:17:56;;;;;;;14.70;8.53;;;9.70;99.90;;;;;;5011756;28;20900;-77
2020/12/19 10:20:21;;;;;;;11.60;7.90;;;8.60;99.90;;;;;;5011040;28;20464;-76
2020/12/19 10:22:47;;;;;;;8.97;7.40;;;7.90;99.90;;;;;;5012281;28;20404;-77
2020/12/19 10:25:13;;;;;;;9.80;8.80;;;7.40;99.90;;;;;;5010552;28;20393;-75
2020/12/19 10:27:40;;;;;;;10.93;7.97;;;7.70;99.90;;;;;;5011467;28;20391;-77
2020/12/19 10:30:06;;;;;;;14.05;8.15;;;7.40;99.90;;;;;;5011931;28;20385;-77
2020/12/19 10:32:32;;;;;;;10.52;7.70;;;7.40;99.90;;;;;;5009652;28;20400;-77
2020/12/19 10:34:57;;;;;;;10.40;7.80;;;7.40;99.90;;;;;;5011175;28;20404;-77
2020/12/19 10:37:23;;;;;;;9.07;7.70;;;8.70;99.90;;;;;;5011130;28;20531;-76
2020/12/19 10:39:49;;;;;;;8.83;7.77;;;8.10;99.90;;;;;;5011886;28;20392;-77
2020/12/19 10:42:15;;;;;;;8.70;7.57;;;8.80;99.90;;;;;;5010239;28;20443;-77
2020/12/19 10:44:41;;;;;;;7.25;6.55;;;8.70;99.90;;;;;;5010982;28;20388;-77
2020/12/19 10:47:06;;;;;;;8.98;6.97;;;8.70;99.90;;;;;;5011685;28;20388;-77
2020/12/19 10:49:32;;;;;;;7.87;6.73;;;9.90;99.90;;;;;;5010083;28;20424;-75
2020/12/19 10:52:03;;;;;;;8.67;6.27;;;9.20;99.90;;;;;;5011606;28;20384;-77
2020/12/19 10:54:28;;;;;;;8.20;6.00;;;9.80;99.90;;;;;;5011010;28;20718;-75
2020/12/19 10:56:54;;;;;;;9.25;6.10;;;9.50;99.90;;;;;;5010882;28;20387;-75
2020/12/19 10:59:20;;;;;;;6.28;4.93;;;9.40;99.90;;;;;;5010288;28;20438;-75
2020/12/19 11:01:46;;;;;;;5.93;4.90;;;9.70;99.90;;;;;;5011210;28;20428;-75
2020/12/19 11:04:12;;;;;;;9.05;4.50;;;10.30;99.90;;;;;;5010109;28;20867;-75
2020/12/19 11:06:38;;;;;;;4.65;3.92;;;9.70;99.90;;;;;;5010526;28;20480;-75
2020/12/19 11:09:04;;;;;;;3.70;3.37;;;9.60;99.90;;;;;;5010717;28;20813;-76
2020/12/19 11:11:29;;;;;;;6.43;3.70;;;9.70;99.90;;;;;;5010503;28;20428;-76
2020/12/19 11:13:56;;;;;;;2.97;2.70;;;11.00;99.90;;;;;;5011034;28;20817;-75
2020/12/19 11:16:21;;;;;;;3.40;3.00;;;10.00;99.90;;;;;;5010317;28;20409;-76
2020/12/19 11:18:47;;;;;;;2.93;2.40;;;9.80;99.90;;;;;;5010676;28;20452;-75
2020/12/19 11:21:13;;;;;;;2.47;2.13;;;10.10;99.90;;;;;;5010437;28;20732;-75
2020/12/19 11:23:39;;;;;;;3.35;2.38;;;10.10;99.90;;;;;;5010276;28;20392;-76
2020/12/19 11:26:04;;;;;;;2.30;2.03;;;10.70;99.90;;;;;;5010755;28;20742;-76
2020/12/19 11:28:30;;;;;;;5.67;2.20;;;11.00;99.90;;;;;;5010117;28;20412;-76
2020/12/19 11:30:56;;;;;;;2.73;2.40;;;9.90;99.90;;;;;;5008010;28;20389;-75
2020/12/19 11:33:22;;;;;;;3.50;2.30;;;10.00;99.90;;;;;;5010331;28;20392;-73
2020/12/19 11:35:47;;;;;;;3.20;1.97;;;10.20;99.90;;;;;;5010369;28;20487;-74
2020/12/19 11:38:13;;;;;;;2.80;2.17;;;10.20;99.90;;;;;;5003311;28;20751;-76
2020/12/19 11:40:40;;;;;;;2.80;2.20;;;10.30;99.90;;;;;;5002280;28;20395;-76
2020/12/19 11:43:05;;;;;;;2.90;2.70;;;10.30;99.90;;;;;;5001985;28;20773;-74
2020/12/19 11:45:31;;;;;;;3.50;2.67;;;10.30;99.90;;;;;;5002528;28;20389;-74
2020/12/19 11:47:57;;;;;;;3.83;2.70;;;10.50;99.90;;;;;;5005762;28;20380;-75
2020/12/19 11:50:22;;;;;;;3.38;2.75;;;10.50;99.90;;;;;;5007611;28;20385;-78
2020/12/19 11:52:48;;;;;;;3.50;2.40;;;10.40;99.90;;;;;;5003782;28;20381;-75
2020/12/19 11:55:14;;;;;;;3.13;2.40;;;10.50;99.90;;;;;;5005838;28;20479;-75
2020/12/19 11:57:39;;;;;;;3.28;2.78;;;10.60;99.90;;;;;;5007309;28;20385;-75
2020/12/19 12:00:06;;;;;;;2.83;2.30;;;10.70;99.90;;;;;;5005996;28;20398;-75
2020/12/19 12:02:31;;;;;;;4.20;2.60;;;10.50;99.90;;;;;;5008423;28;20403;-75
2020/12/19 12:04:57;;;;;;;2.50;2.30;;;10.60;99.90;;;;;;5010632;28;20861;-76
2020/12/19 12:07:23;;;;;;;3.37;3.07;;;11.30;99.90;;;;;;5008305;28;20468;-77
2020/12/19 12:09:49;;;;;;;3.50;2.90;;;10.60;99.90;;;;;;5003235;28;20417;-74
2020/12/19 12:12:14;;;;;;;3.73;3.20;;;10.90;99.90;;;;;;5007892;28;20394;-74
2020/12/19 12:14:40;;;;;;;3.07;2.53;;;10.60;99.90;;;;;;4998735;28;20501;-75
2020/12/19 12:17:06;;;;;;;2.70;2.50;;;10.70;99.90;;;;;;5003369;28;20397;-74
2020/12/19 12:19:32;;;;;;;5.00;3.00;;;10.60;99.90;;;;;;5005260;28;20383;-75
2020/12/19 12:21:57;;;;;;;3.17;2.50;;;10.40;99.90;;;;;;5006856;28;20488;-74
2020/12/19 12:24:23;;;;;;;4.65;2.65;;;10.40;99.90;;;;;;5011473;28;20389;-74
2020/12/19 12:26:49;;;;;;;3.03;2.40;;;10.50;99.90;;;;;;5012556;28;20393;-74
2020/12/19 12:29:14;;;;;;;3.97;2.60;;;10.50;99.90;;;;;;5013062;28;20413;-75
2020/12/19 12:31:41;;;;;;;2.67;2.42;;;11.00;99.90;;;;;;5010532;28;20487;-74
2020/12/19 12:34:07;;;;;;;4.82;2.50;;;10.90;99.90;;;;;;5013176;28;20747;-74
2020/12/19 12:36:33;;;;;;;2.88;2.35;;;11.10;99.90;;;;;;5012463;28;20407;-76
2020/12/19 12:39:00;;;;;;;4.40;2.42;;;10.80;99.90;;;;;;5013137;28;20389;-75
2020/12/19 12:41:26;;;;;;;2.60;2.25;;;10.70;99.90;;;;;;5012757;28;20386;-79
2020/12/19 12:43:52;;;;;;;2.07;1.87;;;10.80;99.90;;;;;;5012415;28;20491;-75
2020/12/19 12:46:18;;;;;;;2.42;1.95;;;10.30;99.90;;;;;;5012797;28;20440;-74
2020/12/19 12:48:45;;;;;;;2.25;2.05;;;10.80;99.90;;;;;;5011821;28;20509;-75
2020/12/19 12:51:12;;;;;;;2.08;1.75;;;10.70;99.90;;;;;;5012932;28;20389;-75
2020/12/19 12:53:38;;;;;;;2.40;2.00;;;11.80;99.90;;;;;;5011892;28;20403;-75
2020/12/19 12:56:04;;;;;;;2.50;2.10;;;10.90;99.90;;;;;;5011588;28;20417;-76
2020/12/19 12:58:30;;;;;;;3.65;1.70;;;10.90;99.90;;;;;;5003628;28;20494;-78
2020/12/19 13:00:56;;;;;;;3.45;1.63;;;11.10;99.20;;;;;;5008886;28;20870;-75